LFRD/DNR METAR and TAF weather

Enter ICAO airport designator
Station Type Date Time Source
LFRD METAR 2020/07/03 13:30 UTC NOAA

LFRD 031330Z AUTO 22010KT 190V260 9999 SCT043 OVC054 20/12 Q1021 NOSIG


Station Type Date Time Source
LFRD Decoded METAR 2020/07/03 13:30 UTC NOAA

Dinard, France (LFRD) 48-35N 002-04W 60M
Jul 03, 2020 - 09:30 AM EDT / 2020.07.03 1330 UTC
Wind: from the SW (220 degrees) at 12 MPH (10 KT) (direction variable):0
Visibility: greater than 7 mile(s):0
Sky conditions: overcast
Temperature: 68 F (20 C)
Dew Point: 53 F (12 C)
Relative Humidity: 59%
Pressure (altimeter): 30.15 in. Hg (1021 hPa)
ob: LFRD 031330Z AUTO 22010KT 190V260 9999 SCT043 OVC054 20/12 Q1021 NOSIG
cycle: 13

Station Type Date Time Source
LFRD TAF 2020/07/03 12:21 UTC NOAA

TAF LFRD 031100Z 0312/0412 24010KT 9999 BKN040 PROB40
TEMPO 0323/0401 BKN014
BECMG 0401/0403 BKN014
TEMPO 0403/0412 21015G25KT 4000 RA BKN008

Example: see airport list